Time,TemperatureF,DewpointF,PressureIn,WindDirection,WindDirectionDegrees,WindSpeedMPH,WindSpeedGustMPH,Humidity,HourlyPrecipIn,Conditions,Clouds,dailyrainin,SoftwareType,DateUTC
2013-09-17 00:23:00,86.0,60.0,29.66,East,99,7.0,19.0,42,0.00,,,0.00,,2013-09-17 07:23:00,
2013-09-17 00:52:00,85.0,60.0,29.66,ENE,72,6.0,14.0,43,0.00,,,0.00,,2013-09-17 07:52:00,
2013-09-17 01:21:00,85.0,61.0,29.66,ENE,74,6.0,12.0,44,0.00,,,0.00,,2013-09-17 08:21:00,
2013-09-17 01:52:00,84.0,60.0,29.65,SE,140,6.0,12.0,45,0.00,,,0.00,,2013-09-17 08:52:00,
2013-09-17 02:22:00,84.0,60.0,29.65,NE,37,7.0,14.0,45,0.00,,,0.00,,2013-09-17 09:22:00,
2013-09-17 02:53:00,84.0,61.0,29.64,East,81,6.0,14.0,46,0.00,,,0.00,,2013-09-17 09:53:00,
2013-09-17 03:23:00,83.0,59.0,29.63,SSE,158,5.0,13.0,45,0.00,,,0.00,,2013-09-17 10:23:00,
2013-09-17 03:53:00,83.0,60.0,29.63,East,89,4.0,13.0,46,0.00,,,0.00,,2013-09-17 10:53:00,
2013-09-17 04:22:00,83.0,60.0,29.63,East,90,5.0,13.0,46,0.00,,,0.00,,2013-09-17 11:22:00,
2013-09-17 04:52:00,83.0,60.0,29.63,ESE,117,5.0,10.0,46,0.00,,,0.00,,2013-09-17 11:52:00,
2013-09-17 05:21:00,83.0,61.0,29.64,ESE,105,5.0,13.0,47,0.00,,,0.00,,2013-09-17 12:21:00,
2013-09-17 05:52:00,82.0,60.0,29.64,ESE,107,3.0,12.0,47,0.00,,,0.00,,2013-09-17 12:52:00,
2013-09-17 06:22:00,82.0,60.0,29.65,SE,143,7.0,15.0,47,0.00,,,0.00,,2013-09-17 13:22:00,
2013-09-17 06:52:00,82.0,60.0,29.65,ESE,111,7.0,15.0,47,0.00,,,0.00,,2013-09-17 13:52:00,
2013-09-17 07:21:00,82.0,60.0,29.65,ESE,104,5.0,15.0,47,0.00,,,0.00,,2013-09-17 14:21:00,
2013-09-17 07:52:00,84.0,60.0,29.66,ESE,103,6.0,16.0,45,0.00,,,0.00,,2013-09-17 14:52:00,
2013-09-17 08:22:00,85.0,61.0,29.66,ESE,118,6.0,15.0,44,0.00,,,0.00,,2013-09-17 15:22:00,
2013-09-17 08:53:00,87.0,61.0,29.66,ENE,67,7.0,18.0,42,0.00,,,0.00,,2013-09-17 15:53:00,
2013-09-17 09:23:00,88.0,61.0,29.66,ESE,118,6.0,15.0,40,0.00,,,0.00,,2013-09-17 16:23:00,
2013-09-17 09:53:00,90.0,61.0,29.66,ESE,109,7.0,15.0,38,0.00,,,0.00,,2013-09-17 16:53:00,
2013-09-17 10:23:00,92.0,61.0,29.65,East,82,6.0,15.0,36,0.00,,,0.00,,2013-09-17 17:23:00,
2013-09-17 10:53:00,94.0,61.0,29.65,ESE,119,6.0,14.0,34,0.00,,,0.00,,2013-09-17 17:53:00,
2013-09-17 11:21:00,95.0,60.0,29.63,East,96,5.0,12.0,32,0.00,,,0.00,,2013-09-17 18:21:00,
2013-09-17 11:52:00,96.0,61.0,29.62,East,89,5.0,13.0,32,0.00,,,0.00,,2013-09-17 18:52:00,
2013-09-17 12:21:00,97.0,59.0,29.61,ESE,114,5.0,12.0,29,0.00,,,0.00,,2013-09-17 19:21:00,
2013-09-17 12:52:00,98.0,60.0,29.60,East,83,3.0,10.0,29,0.00,,,0.00,,2013-09-17 19:52:00,
2013-09-17 13:22:00,98.0,59.0,29.59,East,87,2.0,10.0,28,0.00,,,0.00,,2013-09-17 20:22:00,
2013-09-17 13:52:00,100.0,60.0,29.57,East,87,2.0,6.0,27,0.00,,,0.00,,2013-09-17 20:52:00,
2013-09-17 14:22:00,99.0,58.0,29.56,SSW,213,1.0,7.0,26,0.00,,,0.00,,2013-09-17 21:22:00,
2013-09-17 14:54:00,99.0,58.0,29.54,NE,44,3.0,7.0,26,0.00,,,0.00,,2013-09-17 21:54:00,
2013-09-17 15:24:00,100.0,58.0,29.53,South,189,2.0,7.0,25,0.00,,,0.00,,2013-09-17 22:24:00,
2013-09-17 15:53:00,101.0,60.0,29.52,SE,131,3.0,8.0,26,0.00,,,0.00,,2013-09-17 22:53:00,
2013-09-17 16:21:00,100.0,58.0,29.51,SE,126,1.0,10.0,25,0.00,,,0.00,,2013-09-17 23:21:00,
2013-09-17 16:52:00,98.0,56.0,29.51,ESE,113,1.0,6.0,25,0.00,,,0.00,,2013-09-17 23:52:00,
2013-09-17 17:22:00,98.0,55.0,29.51,ENE,72,2.0,6.0,24,0.00,,,0.00,,2013-09-18 00:22:00,
2013-09-17 17:52:00,97.0,54.0,29.51,East,90,1.0,4.0,24,0.00,,,0.00,,2013-09-18 00:52:00,
2013-09-17 18:21:00,95.0,58.0,29.51,East,82,2.0,7.0,29,0.00,,,0.00,,2013-09-18 01:21:00,
2013-09-17 18:52:00,94.0,58.0,29.51,ENE,64,1.0,7.0,30,0.00,,,0.00,,2013-09-18 01:52:00,
2013-09-17 19:21:00,94.0,58.0,29.52,ENE,62,1.0,6.0,30,0.00,,,0.00,,2013-09-18 02:21:00,
2013-09-17 19:52:00,92.0,57.0,29.53,ESE,105,1.0,4.0,31,0.00,,,0.00,,2013-09-18 02:52:00,
2013-09-17 20:22:00,92.0,57.0,29.55,ESE,109,1.0,4.0,31,0.00,,,0.00,,2013-09-18 03:22:00,
2013-09-17 20:55:00,91.0,55.0,29.55,ESE,104,1.0,3.0,30,0.00,,,0.00,,2013-09-18 03:55:00,
2013-09-17 21:14:00,92.0,57.0,29.56,East,89,1.0,6.0,31,0.00,,,0.00,,2013-09-18 04:14:00,
2013-09-17 21:24:00,91.0,57.0,29.56,ENE,57,0.0,6.0,32,0.00,,,0.00,,2013-09-18 04:24:00,
2013-09-17 21:54:00,90.0,58.0,29.56,East,94,0.0,3.0,34,0.00,,,0.00,,2013-09-18 04:54:00,
2013-09-17 22:23:00,90.0,59.0,29.57,East,86,0.0,4.0,35,0.00,,,0.00,,2013-09-18 05:23:00,
2013-09-17 22:52:00,89.0,59.0,29.57,WSW,251,2.0,6.0,36,0.00,,,0.00,,2013-09-18 05:52:00,
2013-09-17 23:22:00,86.0,59.0,29.58,WSW,251,0.0,0.0,40,0.00,,,0.00,,2013-09-18 06:22:00,
2013-09-17 23:52:00,85.0,57.0,29.57,WSW,251,0.0,0.0,39,0.00,,,0.00,,2013-09-18 06:52:00,